createdAt,value
2017-09-09T00:00:42.914Z,9.75
2017-09-09T00:03:09.523Z,11.38
2017-09-09T00:05:36.150Z,9.70
2017-09-09T00:08:02.757Z,10.93
2017-09-09T00:10:29.402Z,10.40
2017-09-09T00:12:56.051Z,11.85
2017-09-09T00:15:22.653Z,11.35
2017-09-09T00:17:49.283Z,9.88
2017-09-09T00:20:15.922Z,10.38
2017-09-09T00:22:42.578Z,10.27
2017-09-09T00:25:09.185Z,10.98
2017-09-09T00:27:35.797Z,12.18
2017-09-09T00:30:02.426Z,10.73
2017-09-09T00:32:29.118Z,10.77
2017-09-09T00:34:55.746Z,9.23
2017-09-09T00:37:22.393Z,10.65
2017-09-09T00:39:49.038Z,10.45
2017-09-09T00:42:15.670Z,12.00
2017-09-09T00:44:42.277Z,10.13
2017-09-09T00:47:08.958Z,10.98
2017-09-09T00:49:35.601Z,10.35
2017-09-09T00:52:02.222Z,11.10
2017-09-09T00:54:28.842Z,12.07
2017-09-09T00:56:55.467Z,11.90
2017-09-09T00:59:22.108Z,11.73
2017-09-09T01:01:48.833Z,11.93
2017-09-09T01:04:15.441Z,10.75
2017-09-09T01:06:42.166Z,11.38
2017-09-09T01:09:08.801Z,12.85
2017-09-09T01:11:35.446Z,10.40
2017-09-09T01:14:02.134Z,10.73
2017-09-09T01:16:28.741Z,11.23
2017-09-09T01:18:55.365Z,12.43
2017-09-09T01:21:21.979Z,12.13
2017-09-09T01:23:48.613Z,10.95
2017-09-09T01:26:15.278Z,11.48
2017-09-09T01:28:41.882Z,10.32
2017-09-09T01:31:08.602Z,11.85
2017-09-09T01:33:35.309Z,11.43
2017-09-09T01:36:02.051Z,12.20
2017-09-09T01:38:28.654Z,11.85
2017-09-09T01:40:55.317Z,11.98
2017-09-09T01:43:21.952Z,12.00
2017-09-09T01:45:48.557Z,13.18
2017-09-09T01:48:15.186Z,12.50
2017-09-09T01:50:41.881Z,13.20
2017-09-09T01:53:08.482Z,12.45
2017-09-09T01:55:35.117Z,12.68
2017-09-09T01:58:01.793Z,10.57
2017-09-09T02:00:28.539Z,12.18
2017-09-09T02:02:55.174Z,11.93
2017-09-09T02:05:21.789Z,12.27
2017-09-09T02:07:48.410Z,12.15
2017-09-09T02:10:15.021Z,12.50
2017-09-09T02:12:41.654Z,12.98
2017-09-09T02:15:08.378Z,13.55
2017-09-09T02:17:34.982Z,13.38
2017-09-09T02:20:01.617Z,13.57
2017-09-09T02:22:28.332Z,12.30
2017-09-09T02:24:54.953Z,14.27
2017-09-09T02:27:21.711Z,12.63
2017-09-09T02:29:48.404Z,13.15
2017-09-09T02:32:15.025Z,12.00
2017-09-09T02:34:41.639Z,12.90
2017-09-09T02:37:08.326Z,13.70
2017-09-09T02:39:34.957Z,12.20
2017-09-09T02:42:01.570Z,13.35
2017-09-09T02:44:28.288Z,12.25
2017-09-09T02:46:54.890Z,13.18
2017-09-09T02:49:21.526Z,12.23
2017-09-09T02:51:48.162Z,12.73
2017-09-09T02:54:14.844Z,13.23
2017-09-09T02:56:41.546Z,12.88
2017-09-09T02:59:08.178Z,11.30
2017-09-09T03:01:34.806Z,12.20
2017-09-09T03:04:01.422Z,12.52
2017-09-09T03:06:28.098Z,13.00
2017-09-09T03:08:54.733Z,12.02
2017-09-09T03:11:21.342Z,12.88
2017-09-09T03:13:47.982Z,13.30
2017-09-09T03:16:14.591Z,11.95
2017-09-09T03:18:41.288Z,12.75
2017-09-09T03:21:07.929Z,11.98
2017-09-09T03:23:34.541Z,12.77
2017-09-09T03:26:01.215Z,12.63
2017-09-09T03:28:27.813Z,13.40
2017-09-09T03:30:54.423Z,12.35
2017-09-09T03:33:21.043Z,12.90
2017-09-09T03:35:47.658Z,13.62
2017-09-09T03:38:14.285Z,12.37
2017-09-09T03:40:40.946Z,13.68
2017-09-09T03:43:07.582Z,12.75
2017-09-09T03:45:34.264Z,12.48
2017-09-09T03:48:00.866Z,13.93
2017-09-09T03:50:27.498Z,12.77
2017-09-09T03:52:54.138Z,12.68
2017-09-09T03:55:20.751Z,12.60
2017-09-09T03:57:47.378Z,13.20
2017-09-09T04:00:14.006Z,13.62
2017-09-09T04:02:40.617Z,12.73
2017-09-09T04:05:07.242Z,11.50
2017-09-09T04:07:33.857Z,13.98
2017-09-09T04:10:00.474Z,13.35
2017-09-09T04:12:27.145Z,13.32
2017-09-09T04:14:53.754Z,13.45
2017-09-09T04:17:20.421Z,13.82
2017-09-09T04:19:47.049Z,13.52
2017-09-09T04:22:13.705Z,12.65
2017-09-09T04:24:40.387Z,12.88
2017-09-09T04:27:07.088Z,12.32
2017-09-09T04:29:33.722Z,12.07
2017-09-09T04:32:00.472Z,12.20
2017-09-09T04:34:27.079Z,13.27
2017-09-09T04:36:53.689Z,12.80
2017-09-09T04:39:20.313Z,12.20
2017-09-09T04:41:46.922Z,13.35
2017-09-09T04:44:13.558Z,12.73
2017-09-09T04:46:40.195Z,11.48
2017-09-09T04:49:06.797Z,11.73
2017-09-09T04:51:33.520Z,11.85
2017-09-09T04:54:00.128Z,11.20
2017-09-09T04:56:26.900Z,10.13
2017-09-09T04:58:53.501Z,12.37
2017-09-09T05:01:20.118Z,10.98
2017-09-09T05:03:46.737Z,11.68
2017-09-09T05:06:13.351Z,10.55
2017-09-09T05:08:39.977Z,11.10
2017-09-09T05:11:06.591Z,12.00
2017-09-09T05:13:33.229Z,11.55
2017-09-09T05:15:59.961Z,10.63
2017-09-09T05:18:26.570Z,11.85
2017-09-09T05:20:53.292Z,12.32
2017-09-09T05:23:19.893Z,12.95
2017-09-09T05:25:46.502Z,11.68
2017-09-09T05:28:13.161Z,10.07
2017-09-09T05:30:39.776Z,13.32
2017-09-09T05:33:06.439Z,11.40
2017-09-09T05:35:33.045Z,11.48
2017-09-09T05:37:59.690Z,10.82
2017-09-09T05:40:26.357Z,10.50
2017-09-09T05:42:52.962Z,10.88
2017-09-09T05:45:19.600Z,10.80
2017-09-09T05:47:46.203Z,11.77
2017-09-09T05:50:12.814Z,10.70
2017-09-09T05:52:39.496Z,12.18
2017-09-09T05:55:06.194Z,10.35
2017-09-09T05:57:32.869Z,15.02
2017-09-09T05:59:59.473Z,11.20
2017-09-09T06:02:26.110Z,9.95
2017-09-09T06:04:52.745Z,11.35
2017-09-09T06:07:19.357Z,11.70
2017-09-09T06:09:46.074Z,10.65
2017-09-09T06:12:12.674Z,10.45
2017-09-09T06:14:39.286Z,11.00
2017-09-09T06:17:05.946Z,10.85
2017-09-09T06:19:32.581Z,10.00
2017-09-09T06:21:59.325Z,10.30
2017-09-09T06:24:25.962Z,9.27
2017-09-09T06:26:52.670Z,10.20
2017-09-09T06:29:19.290Z,9.75
2017-09-09T06:31:46.009Z,11.02
2017-09-09T06:34:12.635Z,10.30
2017-09-09T06:36:39.246Z,10.43
2017-09-09T06:39:05.933Z,9.80
2017-09-09T06:41:32.527Z,9.10
2017-09-09T06:43:59.138Z,8.30
2017-09-09T06:46:25.768Z,9.10
2017-09-09T06:48:52.504Z,10.32
2017-09-09T06:51:19.198Z,9.40
2017-09-09T06:53:45.837Z,8.93
2017-09-09T06:56:12.447Z,9.70
2017-09-09T06:58:39.075Z,8.25
2017-09-09T07:01:05.750Z,8.43
2017-09-09T07:03:32.353Z,8.57
2017-09-09T07:05:59.079Z,8.68
2017-09-09T07:08:25.678Z,8.82
2017-09-09T07:10:52.301Z,9.30
2017-09-09T07:13:18.909Z,9.02
2017-09-09T07:15:45.514Z,8.38
2017-09-09T07:18:12.233Z,9.10
2017-09-09T07:20:38.865Z,9.70
2017-09-09T07:23:05.656Z,9.07
2017-09-09T07:25:32.354Z,9.25
2017-09-09T07:27:58.957Z,10.50
2017-09-09T07:30:25.578Z,9.90
2017-09-09T07:32:52.201Z,9.88
2017-09-09T07:35:18.825Z,10.13
2017-09-09T07:37:45.430Z,8.65
2017-09-09T07:40:12.038Z,9.57
2017-09-09T07:42:38.659Z,10.02
2017-09-09T07:45:05.266Z,8.75
2017-09-09T07:47:31.984Z,9.60
2017-09-09T07:49:58.638Z,8.57
2017-09-09T07:52:25.274Z,9.35
2017-09-09T07:54:51.889Z,8.48
2017-09-09T07:57:18.553Z,8.45
2017-09-09T07:59:45.183Z,9.10
2017-09-09T08:02:11.834Z,8.55
2017-09-09T08:04:38.439Z,9.25
2017-09-09T08:07:05.061Z,8.40
2017-09-09T08:09:31.754Z,8.65
2017-09-09T08:11:58.381Z,8.20
2017-09-09T08:14:24.990Z,9.38
2017-09-09T08:16:51.594Z,8.07
2017-09-09T08:19:18.239Z,9.40
2017-09-09T08:21:44.846Z,8.85
2017-09-09T08:24:11.589Z,9.63
2017-09-09T08:26:38.201Z,10.68
2017-09-09T08:29:04.861Z,8.90
2017-09-09T08:31:31.485Z,11.00
2017-09-09T08:33:58.094Z,9.10
2017-09-09T08:36:24.720Z,9.40
2017-09-09T08:38:51.324Z,8.80
2017-09-09T08:41:17.938Z,10.20
2017-09-09T08:43:44.569Z,9.25
2017-09-09T08:46:11.184Z,9.82
2017-09-09T08:48:37.870Z,9.95
2017-09-09T08:51:04.479Z,9.35
2017-09-09T08:53:31.089Z,10.73
2017-09-09T08:55:57.705Z,10.10
2017-09-09T08:58:24.430Z,10.63
2017-09-09T09:00:51.063Z,10.88
2017-09-09T09:03:17.709Z,11.70
2017-09-09T09:05:44.345Z,8.25
2017-09-09T09:08:10.986Z,11.48
2017-09-09T09:10:37.594Z,10.13
2017-09-09T09:13:04.222Z,10.98
2017-09-09T09:15:30.837Z,10.95
2017-09-09T09:17:57.441Z,10.10
2017-09-09T09:20:24.080Z,9.80
2017-09-09T09:22:50.678Z,9.85
2017-09-09T09:25:17.309Z,10.40
2017-09-09T09:27:43.918Z,10.75
2017-09-09T09:30:10.530Z,10.30
2017-09-09T09:32:37.147Z,9.52
2017-09-09T09:35:03.858Z,10.10
2017-09-09T09:37:30.471Z,10.20
2017-09-09T09:39:57.149Z,10.60
2017-09-09T09:42:23.757Z,10.40
2017-09-09T09:44:50.475Z,11.05
2017-09-09T09:47:17.098Z,9.40
2017-09-09T09:49:43.706Z,23.92
2017-09-09T09:52:10.317Z,23.05
2017-09-09T09:54:37.103Z,28.52
2017-09-09T09:57:03.916Z,27.77
2017-09-09T09:59:30.862Z,16.77
2017-09-09T10:01:57.973Z,13.52
2017-09-09T10:04:24.618Z,11.30
2017-09-09T10:06:51.537Z,22.55
2017-09-09T10:09:18.544Z,13.95
2017-09-09T10:11:45.801Z,12.48
2017-09-09T10:14:12.966Z,12.75
2017-09-09T10:16:41.605Z,11.65
2017-09-09T10:19:08.685Z,17.60
2017-09-09T10:21:36.963Z,16.80
2017-09-09T10:24:07.908Z,22.40
2017-09-09T10:26:35.772Z,18.62
2017-09-09T10:29:03.082Z,14.27
2017-09-09T10:31:29.958Z,19.70
2017-09-09T10:33:56.849Z,16.85
2017-09-09T10:36:23.715Z,22.17
2017-09-09T10:38:51.377Z,18.00
2017-09-09T10:41:18.431Z,19.10
2017-09-09T10:43:45.214Z,16.45
2017-09-09T10:46:11.873Z,14.18
2017-09-09T10:48:38.511Z,16.92
2017-09-09T10:51:05.118Z,15.75
2017-09-09T10:53:31.771Z,13.55
2017-09-09T10:55:58.393Z,20.37
2017-09-09T10:58:25.010Z,10.15
2017-09-09T11:00:51.642Z,12.80
2017-09-09T11:03:18.250Z,15.60
2017-09-09T11:05:44.862Z,18.48
2017-09-09T11:08:11.495Z,14.02
2017-09-09T11:10:38.198Z,13.18
2017-09-09T11:13:04.834Z,18.95
2017-09-09T11:15:31.450Z,16.15
2017-09-09T11:17:58.109Z,13.52
2017-09-09T11:20:24.746Z,10.32
2017-09-09T11:22:51.388Z,18.87
2017-09-09T11:25:18.025Z,17.65
2017-09-09T11:27:44.674Z,18.70
2017-09-09T11:30:11.293Z,18.45
2017-09-09T11:32:37.914Z,16.77
2017-09-09T11:35:04.840Z,15.10
2017-09-09T11:37:31.537Z,16.05
2017-09-09T11:39:58.147Z,13.57
2017-09-09T11:42:24.762Z,18.05
2017-09-09T11:44:51.382Z,17.10
2017-09-09T11:47:18.004Z,21.15
2017-09-09T11:49:44.641Z,13.95
2017-09-09T11:52:11.267Z,11.05
2017-09-09T11:54:37.874Z,10.25
2017-09-09T11:57:04.507Z,15.15
2017-09-09T11:59:31.126Z,13.27
2017-09-09T12:01:57.768Z,13.20
2017-09-09T12:04:24.382Z,17.40
2017-09-09T12:06:51.102Z,11.38
2017-09-09T12:09:17.726Z,14.27
2017-09-09T12:11:44.425Z,14.30
2017-09-09T12:14:11.058Z,10.52
2017-09-09T12:16:37.673Z,15.25
2017-09-09T12:19:04.285Z,13.05
2017-09-09T12:21:30.906Z,15.00
2017-09-09T12:23:57.578Z,15.18
2017-09-09T12:26:24.318Z,12.32
2017-09-09T12:28:50.921Z,7.68
2017-09-09T12:31:17.594Z,9.23
2017-09-09T12:33:44.234Z,7.62
2017-09-09T12:36:10.843Z,9.15
2017-09-09T12:38:37.478Z,10.98
2017-09-09T12:41:04.085Z,12.52
2017-09-09T12:43:30.718Z,7.32
2017-09-09T12:45:57.339Z,7.45
2017-09-09T12:48:23.941Z,8.00
2017-09-09T12:50:50.612Z,8.73
2017-09-09T12:53:17.226Z,14.30
2017-09-09T12:55:43.834Z,5.70
2017-09-09T12:58:10.453Z,7.70
2017-09-09T13:00:37.074Z,12.50
2017-09-09T13:03:03.693Z,4.85
2017-09-09T13:05:30.301Z,17.15
2017-09-09T13:07:56.978Z,19.92
2017-09-09T13:10:23.597Z,5.20
2017-09-09T13:12:50.214Z,10.27
2017-09-09T13:15:16.851Z,13.70
2017-09-09T13:17:43.457Z,5.37
2017-09-09T13:20:10.066Z,5.68
2017-09-09T13:22:36.717Z,8.05
2017-09-09T13:25:03.320Z,5.25
2017-09-09T13:27:29.944Z,12.43
2017-09-09T13:29:56.565Z,18.65
2017-09-09T13:32:23.170Z,21.40
2017-09-09T13:34:49.797Z,17.45
2017-09-09T13:37:16.400Z,6.03
2017-09-09T13:39:43.123Z,7.10
2017-09-09T13:42:09.863Z,24.33
2017-09-09T13:44:36.564Z,11.70
2017-09-09T13:47:03.188Z,9.52
2017-09-09T13:49:29.821Z,6.87
2017-09-09T13:51:56.523Z,5.55
2017-09-09T13:54:23.129Z,7.40
2017-09-09T13:56:49.734Z,7.28
2017-09-09T13:59:16.362Z,9.00
2017-09-09T14:01:43.040Z,10.77
2017-09-09T14:04:09.674Z,13.27
2017-09-09T14:06:36.275Z,7.62
2017-09-09T14:09:02.878Z,8.68
2017-09-09T14:11:29.506Z,12.23
2017-09-09T14:13:56.109Z,4.50
2017-09-09T14:16:22.742Z,8.77
2017-09-09T14:18:49.341Z,5.18
2017-09-09T14:21:15.942Z,2.50
2017-09-09T14:23:42.579Z,6.87
2017-09-09T14:26:09.181Z,7.50
2017-09-09T14:28:35.783Z,5.75
2017-09-09T14:31:02.403Z,9.63
2017-09-09T14:33:29.003Z,6.03
2017-09-09T14:35:55.607Z,6.22
2017-09-09T14:38:22.309Z,17.40
2017-09-09T14:40:48.927Z,14.93
2017-09-09T14:43:15.543Z,21.92
2017-09-09T14:45:42.170Z,7.97
2017-09-09T14:48:08.785Z,9.88
2017-09-09T14:50:35.391Z,22.73
2017-09-09T14:53:02.042Z,20.95
2017-09-09T14:55:28.682Z,12.55
2017-09-09T14:57:55.314Z,13.77
2017-09-09T15:00:22.005Z,10.75
2017-09-09T15:02:48.614Z,17.27
2017-09-09T15:05:15.345Z,14.65
2017-09-09T15:07:41.970Z,13.73
2017-09-09T15:10:08.666Z,5.40
2017-09-09T15:12:35.270Z,5.93
2017-09-09T15:15:01.876Z,6.53
2017-09-09T15:17:28.503Z,9.10
2017-09-09T15:19:55.110Z,9.77
2017-09-09T15:22:21.818Z,9.68
2017-09-09T15:24:48.430Z,12.27
2017-09-09T15:27:15.137Z,11.55
2017-09-09T15:29:41.761Z,11.10
2017-09-09T15:32:08.371Z,13.68
2017-09-09T15:34:35.042Z,12.93
2017-09-09T15:37:01.652Z,10.65
2017-09-09T15:39:28.258Z,10.77
2017-09-09T15:41:54.893Z,13.50
2017-09-09T15:44:21.612Z,14.48
2017-09-09T15:46:48.237Z,13.55
2017-09-09T15:49:14.854Z,15.38
2017-09-09T15:51:41.481Z,12.75
2017-09-09T15:54:08.167Z,14.48
2017-09-09T15:56:34.867Z,12.65
2017-09-09T15:59:01.503Z,11.50
2017-09-09T16:01:28.114Z,13.30
2017-09-09T16:03:54.730Z,13.90
2017-09-09T16:06:21.422Z,15.15
2017-09-09T16:08:48.026Z,9.35
2017-09-09T16:11:14.743Z,9.60
2017-09-09T16:13:41.353Z,14.65
2017-09-09T16:16:08.103Z,11.30
2017-09-09T16:18:34.818Z,9.88
2017-09-09T16:21:01.429Z,11.07
2017-09-09T16:23:28.066Z,12.10
2017-09-09T16:25:54.737Z,11.55
2017-09-09T16:28:21.378Z,8.52
2017-09-09T16:30:47.994Z,9.10
2017-09-09T16:33:14.654Z,9.52
2017-09-09T16:35:41.398Z,9.02
2017-09-09T16:38:08.037Z,10.23
2017-09-09T16:40:34.720Z,14.00
2017-09-09T16:43:01.337Z,11.45
2017-09-09T16:45:27.951Z,10.45
2017-09-09T16:47:54.582Z,14.65
2017-09-09T16:50:21.234Z,10.75
2017-09-09T16:52:47.838Z,11.15
2017-09-09T16:55:14.470Z,12.10
2017-09-09T16:57:41.145Z,10.00
2017-09-09T17:00:07.779Z,10.68
2017-09-09T17:02:34.425Z,11.48
2017-09-09T17:05:01.066Z,14.15
2017-09-09T17:07:27.689Z,14.85
2017-09-09T17:09:54.302Z,12.43
2017-09-09T17:12:20.937Z,11.52
2017-09-09T17:14:47.552Z,12.63
2017-09-09T17:17:14.158Z,9.77
2017-09-09T17:19:40.787Z,11.90
2017-09-09T17:22:07.396Z,11.80
2017-09-09T17:24:34.078Z,11.10
2017-09-09T17:27:00.709Z,13.07
2017-09-09T17:29:27.322Z,10.23
2017-09-09T17:31:53.937Z,9.00
2017-09-09T17:34:20.546Z,9.00
2017-09-09T17:36:47.211Z,10.27
2017-09-09T17:39:13.822Z,10.02
2017-09-09T17:41:40.431Z,12.70
2017-09-09T17:44:07.058Z,9.75
2017-09-09T17:46:33.769Z,8.77
2017-09-09T17:49:00.398Z,10.25
2017-09-09T17:51:27.102Z,8.82
2017-09-09T17:53:53.742Z,7.85
2017-09-09T17:56:20.382Z,8.68
2017-09-09T17:58:46.985Z,8.90
2017-09-09T18:01:13.626Z,10.10
2017-09-09T18:03:40.302Z,10.52
2017-09-09T18:06:06.902Z,8.00
2017-09-09T18:08:33.522Z,8.70
2017-09-09T18:11:00.134Z,9.23
2017-09-09T18:13:26.854Z,10.13
2017-09-09T18:15:53.461Z,9.00
2017-09-09T18:18:20.079Z,10.35
2017-09-09T18:20:46.699Z,9.50
2017-09-09T18:23:13.414Z,10.27
2017-09-09T18:25:40.149Z,7.82
2017-09-09T18:28:06.790Z,6.25
2017-09-09T18:30:33.394Z,9.98
2017-09-09T18:33:00.019Z,8.30
2017-09-09T18:35:26.622Z,7.20
2017-09-09T18:37:53.290Z,7.45
2017-09-09T18:40:19.928Z,8.50
2017-09-09T18:42:46.535Z,6.65
2017-09-09T18:45:13.150Z,7.90
2017-09-09T18:47:39.797Z,8.25
2017-09-09T18:50:06.544Z,7.80
2017-09-09T18:52:33.181Z,5.85
2017-09-09T18:54:59.820Z,7.28
2017-09-09T18:57:26.435Z,8.48
2017-09-09T18:59:53.037Z,8.00
2017-09-09T19:02:19.738Z,6.28
2017-09-09T19:04:46.422Z,8.35
2017-09-09T19:07:13.022Z,6.60
2017-09-09T19:09:39.642Z,6.95
2017-09-09T19:12:06.300Z,8.55
2017-09-09T19:14:33.018Z,8.93
2017-09-09T19:16:59.616Z,7.82
2017-09-09T19:19:26.213Z,7.15
2017-09-09T19:21:52.899Z,6.43
2017-09-09T19:24:19.589Z,7.00
2017-09-09T19:26:46.218Z,7.20
2017-09-09T19:29:12.826Z,6.60
2017-09-09T19:31:39.505Z,6.85
2017-09-09T19:34:06.150Z,6.65
2017-09-09T19:36:32.754Z,8.02
2017-09-09T19:38:59.386Z,8.75
2017-09-09T19:41:26.007Z,7.97
2017-09-09T19:43:52.782Z,8.40
2017-09-09T19:46:19.406Z,8.05
2017-09-09T19:48:46.090Z,8.27
2017-09-09T19:51:12.713Z,8.68
2017-09-09T19:53:39.314Z,6.82
2017-09-09T19:56:05.986Z,7.80
2017-09-09T19:58:32.605Z,7.47
2017-09-09T20:00:59.278Z,6.43
2017-09-09T20:03:25.883Z,7.80
2017-09-09T20:05:52.510Z,6.90
2017-09-09T20:08:19.117Z,7.95
2017-09-09T20:10:45.726Z,7.40
2017-09-09T20:13:13.222Z,6.80
2017-09-09T20:15:39.830Z,8.52
2017-09-09T20:18:06.431Z,7.62
2017-09-09T20:20:33.053Z,6.75
2017-09-09T20:22:59.653Z,7.28
2017-09-09T20:25:26.262Z,6.95
2017-09-09T20:27:52.902Z,7.70
2017-09-09T20:30:19.487Z,7.55
2017-09-09T20:32:46.111Z,7.45
2017-09-09T20:35:12.722Z,8.73
2017-09-09T20:37:39.334Z,8.02
2017-09-09T20:40:06.014Z,8.10
2017-09-09T20:42:32.654Z,8.07
2017-09-09T20:44:59.283Z,7.50
2017-09-09T20:47:25.980Z,8.13
2017-09-09T20:49:52.670Z,7.75
2017-09-09T20:52:19.289Z,6.25
2017-09-09T20:54:45.891Z,7.05
2017-09-09T20:57:12.534Z,7.45
2017-09-09T20:59:39.142Z,6.93
2017-09-09T21:02:05.765Z,6.70
2017-09-09T21:04:32.392Z,6.62
2017-09-09T21:06:59.000Z,7.22
2017-09-09T21:09:25.682Z,6.60
2017-09-09T21:11:52.286Z,7.47
2017-09-09T21:14:18.891Z,6.85
2017-09-09T21:16:45.506Z,6.78
2017-09-09T21:19:12.183Z,7.12
2017-09-09T21:21:38.807Z,7.12
2017-09-09T21:24:05.525Z,6.10
2017-09-09T21:26:32.158Z,7.30
2017-09-09T21:28:58.774Z,6.32
2017-09-09T21:31:25.370Z,6.37
2017-09-09T21:33:52.075Z,6.70
2017-09-09T21:36:18.677Z,6.35
2017-09-09T21:38:45.349Z,5.97
2017-09-09T21:41:11.970Z,7.20
2017-09-09T21:43:38.626Z,6.50
2017-09-09T21:46:05.270Z,6.43
2017-09-09T21:48:31.869Z,7.05
2017-09-09T21:50:58.474Z,7.15
2017-09-09T21:53:25.080Z,6.45
2017-09-09T21:55:51.681Z,6.20
2017-09-09T21:58:18.306Z,6.53
2017-09-09T22:00:45.003Z,7.00
2017-09-09T22:03:11.604Z,6.28
2017-09-09T22:05:38.284Z,6.03
2017-09-09T22:08:04.881Z,6.87
2017-09-09T22:10:31.502Z,6.75
2017-09-09T22:12:58.209Z,6.40
2017-09-09T22:15:24.814Z,6.35
2017-09-09T22:17:51.438Z,6.50
2017-09-09T22:20:18.115Z,7.10
2017-09-09T22:22:44.742Z,9.00
2017-09-09T22:25:11.391Z,7.85
2017-09-09T22:27:37.998Z,10.80
2017-09-09T22:30:04.614Z,7.97
2017-09-09T22:32:31.309Z,6.97
2017-09-09T22:34:58.050Z,7.97
2017-09-09T22:37:24.734Z,7.00
2017-09-09T22:39:51.431Z,6.28
2017-09-09T22:42:18.052Z,7.55
2017-09-09T22:44:44.646Z,6.40
2017-09-09T22:47:11.275Z,7.00
2017-09-09T22:49:37.877Z,6.50
2017-09-09T22:52:04.486Z,6.85
2017-09-09T22:54:31.106Z,7.30
2017-09-09T22:56:57.705Z,6.72
2017-09-09T22:59:24.330Z,6.40
2017-09-09T23:01:50.934Z,6.68
2017-09-09T23:04:17.618Z,6.97
2017-09-09T23:06:44.234Z,6.80
2017-09-09T23:09:10.895Z,7.22
2017-09-09T23:11:37.633Z,8.13
2017-09-09T23:14:04.286Z,7.87
2017-09-09T23:16:30.894Z,7.78
2017-09-09T23:18:57.513Z,8.95
2017-09-09T23:21:24.118Z,8.68
2017-09-09T23:23:50.832Z,8.98
2017-09-09T23:26:17.470Z,9.90
2017-09-09T23:28:44.092Z,8.60
2017-09-09T23:31:10.718Z,8.68
2017-09-09T23:33:37.322Z,9.68
2017-09-09T23:36:04.025Z,9.00
2017-09-09T23:38:30.629Z,9.15
2017-09-09T23:40:57.306Z,9.80
2017-09-09T23:43:23.946Z,9.13
2017-09-09T23:45:50.546Z,8.73
2017-09-09T23:48:17.173Z,9.20
2017-09-09T23:50:43.778Z,9.48
2017-09-09T23:53:10.510Z,10.02
2017-09-09T23:55:37.132Z,10.77
2017-09-09T23:58:03.741Z,10.20
